sensor_id;sensor_type;location;lat;lon;timestamp;P1;durP1;ratioP1;P2;durP2;ratioP2
12369;SDS011;6249;52.128;9.986;2023-03-24T00:00:26;7.97;;;2.33;;
12369;SDS011;6249;52.128;9.986;2023-03-24T00:03:49;6.90;;;2.77;;
12369;SDS011;6249;52.128;9.986;2023-03-24T00:07:13;8.10;;;3.60;;
12369;SDS011;6249;52.128;9.986;2023-03-24T00:10:38;7.33;;;2.30;;
12369;SDS011;6249;52.128;9.986;2023-03-24T00:14:01;4.97;;;2.23;;
12369;SDS011;6249;52.128;9.986;2023-03-24T00:17:23;6.23;;;2.70;;
12369;SDS011;6249;52.128;9.986;2023-03-24T00:20:48;4.70;;;1.90;;
12369;SDS011;6249;52.128;9.986;2023-03-24T00:24:10;6.97;;;2.77;;
12369;SDS011;6249;52.128;9.986;2023-03-24T00:27:31;4.97;;;2.20;;
12369;SDS011;6249;52.128;9.986;2023-03-24T00:30:55;5.97;;;2.30;;
12369;SDS011;6249;52.128;9.986;2023-03-24T00:34:19;6.60;;;2.57;;
12369;SDS011;6249;52.128;9.986;2023-03-24T00:37:43;4.60;;;2.03;;
12369;SDS011;6249;52.128;9.986;2023-03-24T00:41:06;10.83;;;2.33;;
12369;SDS011;6249;52.128;9.986;2023-03-24T00:44:29;5.87;;;2.40;;
12369;SDS011;6249;52.128;9.986;2023-03-24T00:47:52;7.30;;;3.03;;
12369;SDS011;6249;52.128;9.986;2023-03-24T00:51:13;7.00;;;3.17;;
12369;SDS011;6249;52.128;9.986;2023-03-24T00:54:36;5.97;;;3.10;;
12369;SDS011;6249;52.128;9.986;2023-03-24T00:57:58;12.63;;;4.07;;
12369;SDS011;6249;52.128;9.986;2023-03-24T01:01:20;5.57;;;3.10;;
12369;SDS011;6249;52.128;9.986;2023-03-24T01:04:43;9.00;;;3.30;;
12369;SDS011;6249;52.128;9.986;2023-03-24T01:08:08;6.50;;;3.00;;
12369;SDS011;6249;52.128;9.986;2023-03-24T01:11:33;7.00;;;3.70;;
12369;SDS011;6249;52.128;9.986;2023-03-24T01:14:57;8.17;;;3.53;;
12369;SDS011;6249;52.128;9.986;2023-03-24T01:18:21;8.43;;;3.57;;
12369;SDS011;6249;52.128;9.986;2023-03-24T01:21:46;5.40;;;3.00;;
12369;SDS011;6249;52.128;9.986;2023-03-24T01:25:14;6.87;;;3.80;;
12369;SDS011;6249;52.128;9.986;2023-03-24T01:28:39;5.37;;;3.10;;
12369;SDS011;6249;52.128;9.986;2023-03-24T01:32:02;6.17;;;3.43;;
12369;SDS011;6249;52.128;9.986;2023-03-24T01:35:24;5.90;;;2.80;;
12369;SDS011;6249;52.128;9.986;2023-03-24T01:38:45;4.60;;;2.97;;
12369;SDS011;6249;52.128;9.986;2023-03-24T01:42:08;6.00;;;2.70;;
12369;SDS011;6249;52.128;9.986;2023-03-24T01:49:36;10.23;;;3.40;;
12369;SDS011;6249;52.128;9.986;2023-03-24T01:53:01;9.80;;;3.10;;
12369;SDS011;6249;52.128;9.986;2023-03-24T01:56:25;5.73;;;2.53;;
12369;SDS011;6249;52.128;9.986;2023-03-24T01:59:50;7.93;;;3.27;;
12369;SDS011;6249;52.128;9.986;2023-03-24T02:03:16;4.97;;;2.83;;
12369;SDS011;6249;52.128;9.986;2023-03-24T02:06:41;5.63;;;3.53;;
12369;SDS011;6249;52.128;9.986;2023-03-24T02:10:05;5.90;;;3.40;;
12369;SDS011;6249;52.128;9.986;2023-03-24T02:13:29;5.37;;;3.33;;
12369;SDS011;6249;52.128;9.986;2023-03-24T02:17:40;6.10;;;3.10;;
12369;SDS011;6249;52.128;9.986;2023-03-24T02:32:11;11.63;;;4.00;;
12369;SDS011;6249;52.128;9.986;2023-03-24T02:43:04;6.13;;;3.30;;
12369;SDS011;6249;52.128;9.986;2023-03-24T03:01:05;6.53;;;3.17;;
12369;SDS011;6249;52.128;9.986;2023-03-24T03:04:42;6.50;;;3.40;;
12369;SDS011;6249;52.128;9.986;2023-03-24T03:08:08;5.57;;;3.23;;
12369;SDS011;6249;52.128;9.986;2023-03-24T03:11:32;6.33;;;3.53;;
12369;SDS011;6249;52.128;9.986;2023-03-24T03:14:58;5.73;;;3.10;;
12369;SDS011;6249;52.128;9.986;2023-03-24T03:18:50;6.33;;;3.70;;
12369;SDS011;6249;52.128;9.986;2023-03-24T03:22:22;8.33;;;3.07;;
12369;SDS011;6249;52.128;9.986;2023-03-24T03:25:49;4.20;;;2.57;;
12369;SDS011;6249;52.128;9.986;2023-03-24T03:29:16;4.20;;;2.30;;
12369;SDS011;6249;52.128;9.986;2023-03-24T03:32:43;7.97;;;3.60;;
12369;SDS011;6249;52.128;9.986;2023-03-24T03:39:36;8.87;;;4.17;;
12369;SDS011;6249;52.128;9.986;2023-03-24T03:43:03;7.17;;;4.33;;
12369;SDS011;6249;52.128;9.986;2023-03-24T03:46:24;10.00;;;5.60;;
12369;SDS011;6249;52.128;9.986;2023-03-24T03:49:46;11.03;;;5.23;;
12369;SDS011;6249;52.128;9.986;2023-03-24T03:53:09;10.80;;;5.60;;
12369;SDS011;6249;52.128;9.986;2023-03-24T03:56:33;11.80;;;6.97;;
12369;SDS011;6249;52.128;9.986;2023-03-24T03:59:55;8.40;;;5.50;;
12369;SDS011;6249;52.128;9.986;2023-03-24T04:10:15;8.57;;;5.80;;
12369;SDS011;6249;52.128;9.986;2023-03-24T04:17:48;11.43;;;5.50;;
12369;SDS011;6249;52.128;9.986;2023-03-24T04:24:57;11.07;;;6.10;;
12369;SDS011;6249;52.128;9.986;2023-03-24T04:28:29;7.70;;;4.73;;
12369;SDS011;6249;52.128;9.986;2023-03-24T04:35:23;7.37;;;4.87;;
12369;SDS011;6249;52.128;9.986;2023-03-24T04:38:59;7.73;;;4.87;;
12369;SDS011;6249;52.128;9.986;2023-03-24T04:42:27;10.97;;;5.50;;
12369;SDS011;6249;52.128;9.986;2023-03-24T04:45:54;9.00;;;5.93;;
12369;SDS011;6249;52.128;9.986;2023-03-24T04:49:18;9.80;;;6.10;;
12369;SDS011;6249;52.128;9.986;2023-03-24T04:52:41;10.17;;;6.00;;
12369;SDS011;6249;52.128;9.986;2023-03-24T04:56:06;8.77;;;5.83;;
12369;SDS011;6249;52.128;9.986;2023-03-24T04:59:49;11.30;;;6.13;;
12369;SDS011;6249;52.128;9.986;2023-03-24T05:03:12;9.33;;;5.60;;
12369;SDS011;6249;52.128;9.986;2023-03-24T05:06:33;7.40;;;5.03;;
12369;SDS011;6249;52.128;9.986;2023-03-24T05:09:59;9.63;;;5.67;;
12369;SDS011;6249;52.128;9.986;2023-03-24T05:13:22;10.00;;;5.17;;
12369;SDS011;6249;52.128;9.986;2023-03-24T05:16:44;7.60;;;4.77;;
12369;SDS011;6249;52.128;9.986;2023-03-24T05:20:08;7.60;;;4.70;;
12369;SDS011;6249;52.128;9.986;2023-03-24T05:23:29;13.43;;;5.40;;
12369;SDS011;6249;52.128;9.986;2023-03-24T05:26:52;8.83;;;4.33;;
12369;SDS011;6249;52.128;9.986;2023-03-24T05:30:13;7.30;;;4.77;;
12369;SDS011;6249;52.128;9.986;2023-03-24T05:33:36;7.60;;;5.03;;
12369;SDS011;6249;52.128;9.986;2023-03-24T05:36:59;7.53;;;4.13;;
12369;SDS011;6249;52.128;9.986;2023-03-24T05:40:20;6.80;;;4.20;;
12369;SDS011;6249;52.128;9.986;2023-03-24T05:43:40;9.50;;;4.30;;
12369;SDS011;6249;52.128;9.986;2023-03-24T05:47:02;7.17;;;4.37;;
12369;SDS011;6249;52.128;9.986;2023-03-24T05:50:23;8.57;;;4.53;;
12369;SDS011;6249;52.128;9.986;2023-03-24T05:53:46;6.03;;;3.90;;
12369;SDS011;6249;52.128;9.986;2023-03-24T05:57:11;6.63;;;3.70;;
12369;SDS011;6249;52.128;9.986;2023-03-24T06:00:33;8.40;;;4.83;;
12369;SDS011;6249;52.128;9.986;2023-03-24T06:03:54;10.37;;;3.90;;
12369;SDS011;6249;52.128;9.986;2023-03-24T06:07:17;7.90;;;4.20;;
12369;SDS011;6249;52.128;9.986;2023-03-24T06:10:45;8.10;;;4.87;;
12369;SDS011;6249;52.128;9.986;2023-03-24T06:14:09;8.60;;;5.10;;
12369;SDS011;6249;52.128;9.986;2023-03-24T06:17:33;8.97;;;5.50;;
12369;SDS011;6249;52.128;9.986;2023-03-24T06:20:59;7.20;;;4.50;;
12369;SDS011;6249;52.128;9.986;2023-03-24T06:24:22;6.80;;;4.47;;
12369;SDS011;6249;52.128;9.986;2023-03-24T06:27:43;8.43;;;4.43;;
12369;SDS011;6249;52.128;9.986;2023-03-24T06:31:08;9.40;;;4.97;;
12369;SDS011;6249;52.128;9.986;2023-03-24T06:34:37;8.13;;;4.60;;
12369;SDS011;6249;52.128;9.986;2023-03-24T06:37:59;8.30;;;5.13;;
12369;SDS011;6249;52.128;9.986;2023-03-24T06:41:20;8.70;;;6.00;;
12369;SDS011;6249;52.128;9.986;2023-03-24T06:44:41;9.43;;;5.60;;
12369;SDS011;6249;52.128;9.986;2023-03-24T06:48:02;9.00;;;5.90;;
12369;SDS011;6249;52.128;9.986;2023-03-24T06:51:23;11.37;;;5.97;;
12369;SDS011;6249;52.128;9.986;2023-03-24T06:54:43;9.97;;;6.40;;
12369;SDS011;6249;52.128;9.986;2023-03-24T06:58:04;15.83;;;9.53;;
12369;SDS011;6249;52.128;9.986;2023-03-24T07:01:25;10.60;;;6.60;;
12369;SDS011;6249;52.128;9.986;2023-03-24T07:04:48;10.13;;;3.50;;
12369;SDS011;6249;52.128;9.986;2023-03-24T07:08:09;11.87;;;5.80;;
12369;SDS011;6249;52.128;9.986;2023-03-24T07:11:31;7.00;;;3.87;;
12369;SDS011;6249;52.128;9.986;2023-03-24T07:14:51;7.33;;;3.73;;
12369;SDS011;6249;52.128;9.986;2023-03-24T07:18:12;4.50;;;2.60;;
12369;SDS011;6249;52.128;9.986;2023-03-24T07:21:34;3.33;;;1.80;;
12369;SDS011;6249;52.128;9.986;2023-03-24T07:24:57;6.33;;;2.57;;
12369;SDS011;6249;52.128;9.986;2023-03-24T07:28:23;4.83;;;1.93;;
12369;SDS011;6249;52.128;9.986;2023-03-24T07:31:44;4.43;;;2.70;;
12369;SDS011;6249;52.128;9.986;2023-03-24T07:35:08;3.30;;;1.90;;
12369;SDS011;6249;52.128;9.986;2023-03-24T07:38:30;5.13;;;2.30;;
12369;SDS011;6249;52.128;9.986;2023-03-24T07:41:55;3.97;;;2.20;;
12369;SDS011;6249;52.128;9.986;2023-03-24T07:45:18;3.63;;;1.83;;
12369;SDS011;6249;52.128;9.986;2023-03-24T07:48:41;3.73;;;2.23;;
12369;SDS011;6249;52.128;9.986;2023-03-24T07:52:02;4.20;;;2.80;;
12369;SDS011;6249;52.128;9.986;2023-03-24T07:55:27;4.67;;;3.27;;
12369;SDS011;6249;52.128;9.986;2023-03-24T07:58:48;4.07;;;2.93;;
12369;SDS011;6249;52.128;9.986;2023-03-24T08:02:18;4.03;;;3.07;;
12369;SDS011;6249;52.128;9.986;2023-03-24T08:05:39;3.80;;;2.43;;
12369;SDS011;6249;52.128;9.986;2023-03-24T08:09:02;3.63;;;2.53;;
12369;SDS011;6249;52.128;9.986;2023-03-24T08:12:23;4.73;;;2.47;;
12369;SDS011;6249;52.128;9.986;2023-03-24T08:15:44;4.20;;;2.30;;
12369;SDS011;6249;52.128;9.986;2023-03-24T08:19:07;5.57;;;2.20;;
12369;SDS011;6249;52.128;9.986;2023-03-24T08:22:30;4.60;;;2.87;;
12369;SDS011;6249;52.128;9.986;2023-03-24T08:25:51;4.70;;;2.43;;
12369;SDS011;6249;52.128;9.986;2023-03-24T08:29:11;6.47;;;2.47;;
12369;SDS011;6249;52.128;9.986;2023-03-24T08:32:32;3.90;;;2.23;;
12369;SDS011;6249;52.128;9.986;2023-03-24T08:35:55;3.53;;;2.17;;
12369;SDS011;6249;52.128;9.986;2023-03-24T08:39:16;4.10;;;2.30;;
12369;SDS011;6249;52.128;9.986;2023-03-24T08:42:40;4.77;;;1.70;;
12369;SDS011;6249;52.128;9.986;2023-03-24T08:46:01;4.00;;;1.50;;
12369;SDS011;6249;52.128;9.986;2023-03-24T08:49:22;2.20;;;1.10;;
12369;SDS011;6249;52.128;9.986;2023-03-24T08:52:45;3.67;;;1.40;;
12369;SDS011;6249;52.128;9.986;2023-03-24T08:56:07;3.83;;;1.10;;
12369;SDS011;6249;52.128;9.986;2023-03-24T08:59:32;3.83;;;1.20;;
12369;SDS011;6249;52.128;9.986;2023-03-24T09:02:53;2.23;;;0.80;;
12369;SDS011;6249;52.128;9.986;2023-03-24T09:06:19;6.53;;;1.53;;
12369;SDS011;6249;52.128;9.986;2023-03-24T09:09:42;3.60;;;1.30;;
12369;SDS011;6249;52.128;9.986;2023-03-24T09:13:03;7.07;;;1.70;;
12369;SDS011;6249;52.128;9.986;2023-03-24T09:16:24;3.90;;;1.10;;
12369;SDS011;6249;52.128;9.986;2023-03-24T09:19:45;6.70;;;1.57;;
12369;SDS011;6249;52.128;9.986;2023-03-24T09:23:06;6.93;;;1.80;;
12369;SDS011;6249;52.128;9.986;2023-03-24T09:26:26;4.87;;;1.50;;
12369;SDS011;6249;52.128;9.986;2023-03-24T09:29:47;9.03;;;2.20;;
12369;SDS011;6249;52.128;9.986;2023-03-24T09:33:12;10.83;;;2.07;;
12369;SDS011;6249;52.128;9.986;2023-03-24T09:36:33;5.37;;;1.80;;
12369;SDS011;6249;52.128;9.986;2023-03-24T09:39:56;5.70;;;1.70;;
12369;SDS011;6249;52.128;9.986;2023-03-24T09:46:47;8.33;;;2.00;;
12369;SDS011;6249;52.128;9.986;2023-03-24T09:50:18;8.80;;;1.60;;
12369;SDS011;6249;52.128;9.986;2023-03-24T10:00:44;7.90;;;2.13;;
12369;SDS011;6249;52.128;9.986;2023-03-24T10:04:06;10.20;;;2.33;;
12369;SDS011;6249;52.128;9.986;2023-03-24T10:08:22;8.87;;;1.73;;
12369;SDS011;6249;52.128;9.986;2023-03-24T10:11:56;13.73;;;2.57;;
12369;SDS011;6249;52.128;9.986;2023-03-24T10:15:27;14.47;;;2.20;;
12369;SDS011;6249;52.128;9.986;2023-03-24T10:22:44;7.33;;;2.20;;
12369;SDS011;6249;52.128;9.986;2023-03-24T10:30:15;11.20;;;2.17;;
12369;SDS011;6249;52.128;9.986;2023-03-24T10:33:43;11.47;;;2.43;;
12369;SDS011;6249;52.128;9.986;2023-03-24T10:37:04;8.50;;;2.57;;
12369;SDS011;6249;52.128;9.986;2023-03-24T10:40:31;11.67;;;2.70;;
12369;SDS011;6249;52.128;9.986;2023-03-24T10:43:53;11.53;;;3.00;;
12369;SDS011;6249;52.128;9.986;2023-03-24T10:47:17;8.90;;;1.80;;
12369;SDS011;6249;52.128;9.986;2023-03-24T10:50:45;15.43;;;2.50;;
12369;SDS011;6249;52.128;9.986;2023-03-24T10:54:09;12.80;;;2.30;;
12369;SDS011;6249;52.128;9.986;2023-03-24T10:57:37;10.70;;;2.20;;
12369;SDS011;6249;52.128;9.986;2023-03-24T11:01:09;7.20;;;2.00;;
12369;SDS011;6249;52.128;9.986;2023-03-24T11:04:47;7.73;;;1.70;;
12369;SDS011;6249;52.128;9.986;2023-03-24T11:11:51;13.60;;;2.30;;
12369;SDS011;6249;52.128;9.986;2023-03-24T11:15:31;11.47;;;2.87;;
12369;SDS011;6249;52.128;9.986;2023-03-24T11:19:02;8.53;;;2.10;;
12369;SDS011;6249;52.128;9.986;2023-03-24T11:22:24;6.73;;;2.00;;
12369;SDS011;6249;52.128;9.986;2023-03-24T11:26:08;5.80;;;1.40;;
12369;SDS011;6249;52.128;9.986;2023-03-24T11:29:27;18.87;;;2.60;;
12369;SDS011;6249;52.128;9.986;2023-03-24T11:32:50;7.73;;;2.00;;
12369;SDS011;6249;52.128;9.986;2023-03-24T11:43:34;6.20;;;2.00;;
12369;SDS011;6249;52.128;9.986;2023-03-24T11:46:59;7.00;;;2.23;;
12369;SDS011;6249;52.128;9.986;2023-03-24T11:50:30;9.77;;;2.60;;
12369;SDS011;6249;52.128;9.986;2023-03-24T11:53:55;15.20;;;2.83;;
12369;SDS011;6249;52.128;9.986;2023-03-24T11:57:22;17.10;;;2.63;;
12369;SDS011;6249;52.128;9.986;2023-03-24T12:01:04;6.47;;;2.43;;
12369;SDS011;6249;52.128;9.986;2023-03-24T12:04:40;10.00;;;3.07;;
12369;SDS011;6249;52.128;9.986;2023-03-24T12:22:49;8.77;;;3.47;;
12369;SDS011;6249;52.128;9.986;2023-03-24T12:26:26;11.77;;;3.17;;
12369;SDS011;6249;52.128;9.986;2023-03-24T12:52:02;9.67;;;2.93;;
12369;SDS011;6249;52.128;9.986;2023-03-24T12:55:36;14.90;;;2.93;;
12369;SDS011;6249;52.128;9.986;2023-03-24T12:59:03;11.40;;;3.17;;
12369;SDS011;6249;52.128;9.986;2023-03-24T13:05:58;12.70;;;3.10;;
12369;SDS011;6249;52.128;9.986;2023-03-24T13:13:22;5.70;;;1.67;;
12369;SDS011;6249;52.128;9.986;2023-03-24T13:16:48;14.73;;;2.87;;
12369;SDS011;6249;52.128;9.986;2023-03-24T13:20:12;6.00;;;1.90;;
12369;SDS011;6249;52.128;9.986;2023-03-24T13:27:25;9.57;;;2.00;;
12369;SDS011;6249;52.128;9.986;2023-03-24T13:30:51;8.43;;;2.07;;
12369;SDS011;6249;52.128;9.986;2023-03-24T13:34:24;8.60;;;2.23;;
12369;SDS011;6249;52.128;9.986;2023-03-24T13:38:16;8.20;;;2.20;;
12369;SDS011;6249;52.128;9.986;2023-03-24T13:41:47;7.87;;;1.90;;
12369;SDS011;6249;52.128;9.986;2023-03-24T13:48:54;4.80;;;1.87;;
12369;SDS011;6249;52.128;9.986;2023-03-24T13:52:26;9.17;;;2.87;;
12369;SDS011;6249;52.128;9.986;2023-03-24T13:55:51;8.13;;;2.33;;
12369;SDS011;6249;52.128;9.986;2023-03-24T14:02:42;9.63;;;2.90;;
12369;SDS011;6249;52.128;9.986;2023-03-24T14:06:15;14.93;;;2.23;;
12369;SDS011;6249;52.128;9.986;2023-03-24T14:09:39;8.93;;;2.40;;
12369;SDS011;6249;52.128;9.986;2023-03-24T14:13:22;9.53;;;2.40;;
12369;SDS011;6249;52.128;9.986;2023-03-24T14:20:33;9.03;;;2.40;;
12369;SDS011;6249;52.128;9.986;2023-03-24T14:24:00;9.23;;;2.43;;
12369;SDS011;6249;52.128;9.986;2023-03-24T14:27:31;13.60;;;3.40;;
12369;SDS011;6249;52.128;9.986;2023-03-24T14:34:37;12.00;;;2.60;;
12369;SDS011;6249;52.128;9.986;2023-03-24T14:41:37;6.87;;;2.23;;
12369;SDS011;6249;52.128;9.986;2023-03-24T14:45:01;6.83;;;2.10;;
12369;SDS011;6249;52.128;9.986;2023-03-24T14:56:18;6.87;;;2.37;;
12369;SDS011;6249;52.128;9.986;2023-03-24T14:59:45;7.40;;;2.20;;
12369;SDS011;6249;52.128;9.986;2023-03-24T15:06:52;6.20;;;1.97;;
12369;SDS011;6249;52.128;9.986;2023-03-24T15:10:13;10.37;;;2.00;;
12369;SDS011;6249;52.128;9.986;2023-03-24T15:13:38;9.00;;;2.40;;
12369;SDS011;6249;52.128;9.986;2023-03-24T15:17:05;12.23;;;3.07;;
12369;SDS011;6249;52.128;9.986;2023-03-24T15:20:40;7.57;;;2.40;;
12369;SDS011;6249;52.128;9.986;2023-03-24T15:27:40;6.87;;;1.57;;
12369;SDS011;6249;52.128;9.986;2023-03-24T15:31:07;9.00;;;1.40;;
12369;SDS011;6249;52.128;9.986;2023-03-24T15:38:01;8.17;;;1.90;;
12369;SDS011;6249;52.128;9.986;2023-03-24T15:41:23;5.73;;;1.67;;
12369;SDS011;6249;52.128;9.986;2023-03-24T15:44:43;7.50;;;1.83;;
12369;SDS011;6249;52.128;9.986;2023-03-24T15:48:06;8.00;;;1.20;;
12369;SDS011;6249;52.128;9.986;2023-03-24T15:51:47;7.43;;;1.80;;
12369;SDS011;6249;52.128;9.986;2023-03-24T15:55:22;9.00;;;1.33;;
12369;SDS011;6249;52.128;9.986;2023-03-24T15:58:54;13.33;;;2.00;;
12369;SDS011;6249;52.128;9.986;2023-03-24T16:05:48;7.90;;;1.67;;
12369;SDS011;6249;52.128;9.986;2023-03-24T16:09:13;7.33;;;1.77;;
12369;SDS011;6249;52.128;9.986;2023-03-24T16:12:35;5.33;;;1.40;;
12369;SDS011;6249;52.128;9.986;2023-03-24T16:15:57;8.70;;;2.00;;
12369;SDS011;6249;52.128;9.986;2023-03-24T16:19:18;8.87;;;2.07;;
12369;SDS011;6249;52.128;9.986;2023-03-24T16:22:39;8.63;;;1.90;;
12369;SDS011;6249;52.128;9.986;2023-03-24T16:26:00;11.50;;;2.37;;
12369;SDS011;6249;52.128;9.986;2023-03-24T16:29:21;6.20;;;1.50;;
12369;SDS011;6249;52.128;9.986;2023-03-24T16:32:43;8.00;;;1.57;;
12369;SDS011;6249;52.128;9.986;2023-03-24T16:36:03;7.37;;;1.40;;
12369;SDS011;6249;52.128;9.986;2023-03-24T16:39:27;4.23;;;1.13;;
12369;SDS011;6249;52.128;9.986;2023-03-24T16:42:48;9.63;;;2.07;;
12369;SDS011;6249;52.128;9.986;2023-03-24T16:46:12;10.13;;;1.43;;
12369;SDS011;6249;52.128;9.986;2023-03-24T16:49:34;5.73;;;1.10;;
12369;SDS011;6249;52.128;9.986;2023-03-24T16:52:56;8.13;;;1.83;;
12369;SDS011;6249;52.128;9.986;2023-03-24T16:56:18;6.10;;;1.67;;
12369;SDS011;6249;52.128;9.986;2023-03-24T16:59:42;9.97;;;1.53;;
12369;SDS011;6249;52.128;9.986;2023-03-24T17:03:03;8.90;;;2.23;;
12369;SDS011;6249;52.128;9.986;2023-03-24T17:06:27;4.97;;;1.40;;
12369;SDS011;6249;52.128;9.986;2023-03-24T17:09:50;6.00;;;1.60;;
12369;SDS011;6249;52.128;9.986;2023-03-24T17:13:15;5.73;;;1.10;;
12369;SDS011;6249;52.128;9.986;2023-03-24T17:16:43;3.97;;;1.00;;
12369;SDS011;6249;52.128;9.986;2023-03-24T17:20:05;2.43;;;0.70;;
12369;SDS011;6249;52.128;9.986;2023-03-24T17:23:26;2.50;;;0.90;;
12369;SDS011;6249;52.128;9.986;2023-03-24T17:26:49;3.70;;;0.80;;
12369;SDS011;6249;52.128;9.986;2023-03-24T17:30:20;2.80;;;1.17;;
12369;SDS011;6249;52.128;9.986;2023-03-24T17:33:42;7.57;;;1.23;;
12369;SDS011;6249;52.128;9.986;2023-03-24T17:37:03;2.83;;;1.10;;
12369;SDS011;6249;52.128;9.986;2023-03-24T17:40:24;4.03;;;1.00;;
12369;SDS011;6249;52.128;9.986;2023-03-24T17:43:44;2.97;;;1.00;;
12369;SDS011;6249;52.128;9.986;2023-03-24T17:47:05;2.93;;;1.00;;
12369;SDS011;6249;52.128;9.986;2023-03-24T17:50:26;9.00;;;2.17;;
12369;SDS011;6249;52.128;9.986;2023-03-24T17:53:49;2.73;;;1.33;;
12369;SDS011;6249;52.128;9.986;2023-03-24T17:57:12;5.53;;;1.60;;
12369;SDS011;6249;52.128;9.986;2023-03-24T18:00:35;3.70;;;1.30;;
12369;SDS011;6249;52.128;9.986;2023-03-24T18:03:56;6.63;;;1.30;;
12369;SDS011;6249;52.128;9.986;2023-03-24T18:07:17;5.83;;;1.70;;
12369;SDS011;6249;52.128;9.986;2023-03-24T18:10:37;5.23;;;1.47;;
12369;SDS011;6249;52.128;9.986;2023-03-24T18:13:58;4.20;;;1.60;;
12369;SDS011;6249;52.128;9.986;2023-03-24T18:17:18;3.90;;;1.77;;
12369;SDS011;6249;52.128;9.986;2023-03-24T18:20:39;6.10;;;1.70;;
12369;SDS011;6249;52.128;9.986;2023-03-24T18:24:01;5.80;;;2.00;;
12369;SDS011;6249;52.128;9.986;2023-03-24T18:27:25;6.27;;;2.10;;
12369;SDS011;6249;52.128;9.986;2023-03-24T18:30:46;6.93;;;3.00;;
12369;SDS011;6249;52.128;9.986;2023-03-24T18:34:12;5.90;;;2.50;;
12369;SDS011;6249;52.128;9.986;2023-03-24T18:37:33;7.77;;;2.33;;
12369;SDS011;6249;52.128;9.986;2023-03-24T18:40:57;8.47;;;2.87;;
12369;SDS011;6249;52.128;9.986;2023-03-24T18:44:22;8.93;;;2.63;;
12369;SDS011;6249;52.128;9.986;2023-03-24T18:47:45;10.47;;;3.33;;
12369;SDS011;6249;52.128;9.986;2023-03-24T18:51:08;9.40;;;3.03;;
12369;SDS011;6249;52.128;9.986;2023-03-24T18:54:30;7.43;;;2.20;;
12369;SDS011;6249;52.128;9.986;2023-03-24T18:57:53;5.43;;;2.40;;
12369;SDS011;6249;52.128;9.986;2023-03-24T19:01:15;4.10;;;1.27;;
12369;SDS011;6249;52.128;9.986;2023-03-24T19:04:41;4.73;;;1.80;;
12369;SDS011;6249;52.128;9.986;2023-03-24T19:08:05;4.50;;;1.57;;
12369;SDS011;6249;52.128;9.986;2023-03-24T19:11:28;10.43;;;1.90;;
12369;SDS011;6249;52.128;9.986;2023-03-24T19:14:49;5.60;;;1.80;;
12369;SDS011;6249;52.128;9.986;2023-03-24T19:18:15;4.60;;;2.00;;
12369;SDS011;6249;52.128;9.986;2023-03-24T19:21:35;5.20;;;1.93;;
12369;SDS011;6249;52.128;9.986;2023-03-24T19:25:01;6.43;;;1.97;;
12369;SDS011;6249;52.128;9.986;2023-03-24T19:28:23;3.43;;;1.53;;
12369;SDS011;6249;52.128;9.986;2023-03-24T19:31:48;9.40;;;2.57;;
12369;SDS011;6249;52.128;9.986;2023-03-24T19:35:09;5.90;;;1.30;;
12369;SDS011;6249;52.128;9.986;2023-03-24T19:38:30;10.07;;;2.03;;
12369;SDS011;6249;52.128;9.986;2023-03-24T19:41:51;7.30;;;1.40;;
12369;SDS011;6249;52.128;9.986;2023-03-24T19:45:13;4.60;;;1.50;;
12369;SDS011;6249;52.128;9.986;2023-03-24T19:48:35;12.70;;;2.07;;
12369;SDS011;6249;52.128;9.986;2023-03-24T19:51:56;4.37;;;1.77;;
12369;SDS011;6249;52.128;9.986;2023-03-24T19:55:17;4.67;;;1.57;;
12369;SDS011;6249;52.128;9.986;2023-03-24T19:58:40;7.77;;;1.63;;
12369;SDS011;6249;52.128;9.986;2023-03-24T20:02:03;3.60;;;1.00;;
12369;SDS011;6249;52.128;9.986;2023-03-24T20:05:26;8.00;;;1.27;;
12369;SDS011;6249;52.128;9.986;2023-03-24T20:08:51;4.53;;;1.30;;
12369;SDS011;6249;52.128;9.986;2023-03-24T20:12:14;4.27;;;1.13;;
12369;SDS011;6249;52.128;9.986;2023-03-24T20:15:35;3.10;;;0.90;;
12369;SDS011;6249;52.128;9.986;2023-03-24T20:18:56;2.90;;;1.00;;
12369;SDS011;6249;52.128;9.986;2023-03-24T20:22:17;8.30;;;1.07;;
12369;SDS011;6249;52.128;9.986;2023-03-24T20:25:41;4.27;;;1.20;;
12369;SDS011;6249;52.128;9.986;2023-03-24T20:29:01;5.33;;;1.40;;
12369;SDS011;6249;52.128;9.986;2023-03-24T20:32:23;3.60;;;1.03;;
12369;SDS011;6249;52.128;9.986;2023-03-24T20:35:44;2.30;;;0.80;;
12369;SDS011;6249;52.128;9.986;2023-03-24T20:39:06;3.83;;;0.90;;
12369;SDS011;6249;52.128;9.986;2023-03-24T20:42:29;3.23;;;0.80;;
12369;SDS011;6249;52.128;9.986;2023-03-24T20:45:54;3.83;;;1.07;;
12369;SDS011;6249;52.128;9.986;2023-03-24T20:49:18;3.30;;;0.90;;
12369;SDS011;6249;52.128;9.986;2023-03-24T20:52:38;3.70;;;0.83;;
12369;SDS011;6249;52.128;9.986;2023-03-24T20:56:01;2.73;;;0.80;;
12369;SDS011;6249;52.128;9.986;2023-03-24T20:59:26;4.57;;;0.90;;
12369;SDS011;6249;52.128;9.986;2023-03-24T21:02:49;3.87;;;1.10;;
12369;SDS011;6249;52.128;9.986;2023-03-24T21:06:11;2.90;;;0.83;;
12369;SDS011;6249;52.128;9.986;2023-03-24T21:09:34;2.00;;;0.77;;
12369;SDS011;6249;52.128;9.986;2023-03-24T21:12:57;3.67;;;1.00;;
12369;SDS011;6249;52.128;9.986;2023-03-24T21:16:20;9.03;;;1.20;;
12369;SDS011;6249;52.128;9.986;2023-03-24T21:19:40;4.43;;;1.10;;
12369;SDS011;6249;52.128;9.986;2023-03-24T21:23:05;3.77;;;1.00;;
12369;SDS011;6249;52.128;9.986;2023-03-24T21:26:28;3.90;;;1.23;;
12369;SDS011;6249;52.128;9.986;2023-03-24T21:29:49;4.87;;;1.30;;
12369;SDS011;6249;52.128;9.986;2023-03-24T21:33:10;3.23;;;1.00;;
12369;SDS011;6249;52.128;9.986;2023-03-24T21:36:33;3.97;;;0.93;;
12369;SDS011;6249;52.128;9.986;2023-03-24T21:39:59;4.10;;;0.90;;
12369;SDS011;6249;52.128;9.986;2023-03-24T21:43:23;2.43;;;0.80;;
12369;SDS011;6249;52.128;9.986;2023-03-24T21:46:46;5.10;;;1.00;;
12369;SDS011;6249;52.128;9.986;2023-03-24T21:50:09;5.87;;;1.17;;
12369;SDS011;6249;52.128;9.986;2023-03-24T21:53:37;2.20;;;1.00;;
12369;SDS011;6249;52.128;9.986;2023-03-24T21:56:58;3.50;;;1.00;;
12369;SDS011;6249;52.128;9.986;2023-03-24T22:00:20;9.63;;;1.57;;
12369;SDS011;6249;52.128;9.986;2023-03-24T22:03:42;4.57;;;1.00;;
12369;SDS011;6249;52.128;9.986;2023-03-24T22:07:07;7.93;;;1.30;;
12369;SDS011;6249;52.128;9.986;2023-03-24T22:10:29;6.13;;;1.60;;
12369;SDS011;6249;52.128;9.986;2023-03-24T22:13:53;6.67;;;1.27;;
12369;SDS011;6249;52.128;9.986;2023-03-24T22:17:14;3.20;;;1.37;;
12369;SDS011;6249;52.128;9.986;2023-03-24T22:20:34;4.47;;;1.03;;
12369;SDS011;6249;52.128;9.986;2023-03-24T22:23:56;5.23;;;1.00;;
12369;SDS011;6249;52.128;9.986;2023-03-24T22:27:17;7.70;;;1.30;;
12369;SDS011;6249;52.128;9.986;2023-03-24T22:30:39;9.97;;;1.97;;
12369;SDS011;6249;52.128;9.986;2023-03-24T22:34:00;8.03;;;1.10;;
12369;SDS011;6249;52.128;9.986;2023-03-24T22:37:23;7.87;;;1.10;;
12369;SDS011;6249;52.128;9.986;2023-03-24T22:40:43;4.33;;;1.47;;
12369;SDS011;6249;52.128;9.986;2023-03-24T22:44:04;6.20;;;1.23;;
12369;SDS011;6249;52.128;9.986;2023-03-24T22:47:30;4.00;;;1.00;;
12369;SDS011;6249;52.128;9.986;2023-03-24T22:50:51;4.90;;;1.13;;
12369;SDS011;6249;52.128;9.986;2023-03-24T22:54:14;7.60;;;1.20;;
12369;SDS011;6249;52.128;9.986;2023-03-24T22:57:34;3.93;;;1.10;;
12369;SDS011;6249;52.128;9.986;2023-03-24T23:00:57;9.43;;;1.47;;
12369;SDS011;6249;52.128;9.986;2023-03-24T23:04:18;4.00;;;0.93;;
12369;SDS011;6249;52.128;9.986;2023-03-24T23:07:41;6.20;;;1.00;;
12369;SDS011;6249;52.128;9.986;2023-03-24T23:11:09;6.97;;;1.37;;
12369;SDS011;6249;52.128;9.986;2023-03-24T23:14:30;4.70;;;0.80;;
12369;SDS011;6249;52.128;9.986;2023-03-24T23:17:51;4.30;;;0.83;;
12369;SDS011;6249;52.128;9.986;2023-03-24T23:21:12;5.23;;;0.90;;
12369;SDS011;6249;52.128;9.986;2023-03-24T23:24:35;4.17;;;1.00;;
12369;SDS011;6249;52.128;9.986;2023-03-24T23:28:00;4.70;;;1.13;;
12369;SDS011;6249;52.128;9.986;2023-03-24T23:31:24;4.30;;;1.07;;
12369;SDS011;6249;52.128;9.986;2023-03-24T23:34:46;4.90;;;1.03;;
12369;SDS011;6249;52.128;9.986;2023-03-24T23:38:07;6.33;;;1.30;;
12369;SDS011;6249;52.128;9.986;2023-03-24T23:41:31;5.37;;;1.57;;
12369;SDS011;6249;52.128;9.986;2023-03-24T23:44:51;6.60;;;1.20;;